Hlavní strana
METAR-TAF:

METAR-TAF

Letiště :

Letiště Bukurešť Henriho Coandy

Bukurešť, Rumunsko

zeměpisná šířka: 44-33N, zeměpisná délka: 026-06E, výška: 95 m

Aktuální stav počasí

Zpráva byla vytvořena před 39 minutami, v 20:30 UTC
Západní vítr 5 kt
Teplota 22°C
Vlhkost vzduchu 73%
Tlak 1004 hPa
Viditelnost 10 km a více
Žádná oblačnost pod 1500 m, nevyskytují se cumulonimby.

METAR: LROP 172030Z 26005KT CAVOK 22/17 Q1004 NOSIG

Čas: 00:09 (21:09 UTC)

Předpověď počasí

Zpráva byla vytvořena před 4 hodinami a 9 minutami, v 17:00 UTC
Předpověď platná od 17 v 18 UTC do 18 v 18 UTC
Západojihozápadní vítr 6 kt
Viditelnost 10 km a více
Žádná oblačnost pod 1500 m, nevyskytují se cumulonimby.
Dočasný
od 18 v 11 UTC do 18 v 16 UTC
vítr z různých směrů 20 kt s nárazy do 30 kt
Viditelnost: 3000 m
Oblačno až skoro zataženo ve výšce 3000 ft, Cumulonimbus.
bouřka, slabý déšť

TAF: LROP 171700Z 1718/1818 24006KT CAVOK TEMPO 1811/1816 VRB20G30KT 3000 -TSRA BKN030CB

Stav a předpovědi počasí z více než 4 000 letišť (zprávy METAR a TAF).

Červené a žluté tečky na mapě představují dostupné meteorologické stanice.

Když kurzor umístíte na tečku, zobrazí se název stanice.

Pak kliknutím zobrazíte stav a předpověď počasí.

Chcete-li změnit mapu, kliknutím na zelené tlačítko se znaménkem +mapu přiblížíte, kliknutím na zelené tlačítko se znaménkem – mapu oddálíte a kliknutím na zelené šipky přejdete na sousední mapy.


METAR-TAF: